Terminal Aerodrome Forecast
Issued by NWS Detroit/Pontiac, MI

Home | Current Version | Previous Version | Text Only | Print | Product List | Glossary On
Versions: 1 2 3 4 5 6 7 8 9 10 11 12 13 14 15 16 17 18 19 20 21 22 23 24 25 26 27 28 29 30 31
000
FTUS43 KDTX 312056 AAA
TAFDTW
TAF AMD
KDTW 312056Z 3121/0124 34012KT P6SM SCT045 BKN200
     FM312300 35009KT P6SM FEW050
     FM010200 34006KT P6SM SKC
     FM011100 34007KT P6SM SCT012
     FM011400 36010KT P6SM SCT015 BKN022
     FM011800 36010KT P6SM BKN040=

USA.gov is the U.S. government's official web portal to all federal, state and local government web resources and services.